Main page
METAR-TAF:

METAR-TAF

Airports :

Campo de Marte Airport

São Paulo, São Paulo, Brazil

latitude: 23-31S, longitude: 046-38W, elevation: 722 m

Current weather observation

The report was made 1 hour and 16 minutes ago, at 18:00 UTC
Wind 3 kt from the West/Southwest, varying between South/Southwest and West/Northwest
Temperature 26°C
Humidity 61%
Pressure 1015 hPa
Visibility: 8000 m

METAR: SBMT 201800Z 25003KT 210V300 8000 NSC 26/18 Q1015

Time: 16:16 (19:16 UTC)


TAF: missing

Weather observations and forecasts of more than 4000 airports (METAR and TAF reports).

The available stations are represented by yellow and red dots on the map.

Hover mouse over dot to see the name of the station.

Then click to see weather observations and forecasts.

To change the map : click on the green buttons with a black cross to zoom in, on the green button with a dash to zoom out, or on the green arrows for adjacent maps.


METAR-TAF: